sensor_id;sensor_type;location;lat;lon;timestamp;P1;durP1;ratioP1;P2;durP2;ratioP2
11121;SDS011;5615;49.304;10.576;2024-02-14T00:01:16;16.87;;;12.67;;
11121;SDS011;5615;49.304;10.576;2024-02-14T00:03:44;18.53;;;13.10;;
11121;SDS011;5615;49.304;10.576;2024-02-14T00:06:12;19.73;;;13.07;;
11121;SDS011;5615;49.304;10.576;2024-02-14T00:08:39;19.27;;;13.50;;
11121;SDS011;5615;49.304;10.576;2024-02-14T00:11:06;20.43;;;13.60;;
11121;SDS011;5615;49.304;10.576;2024-02-14T00:13:32;19.87;;;12.73;;
11121;SDS011;5615;49.304;10.576;2024-02-14T00:15:59;20.77;;;13.87;;
11121;SDS011;5615;49.304;10.576;2024-02-14T00:18:26;19.97;;;13.93;;
11121;SDS011;5615;49.304;10.576;2024-02-14T00:20:55;15.03;;;12.60;;
11121;SDS011;5615;49.304;10.576;2024-02-14T00:23:22;19.83;;;13.03;;
11121;SDS011;5615;49.304;10.576;2024-02-14T00:25:49;23.57;;;13.67;;
11121;SDS011;5615;49.304;10.576;2024-02-14T00:28:15;16.77;;;12.80;;
11121;SDS011;5615;49.304;10.576;2024-02-14T00:30:42;20.53;;;13.33;;
11121;SDS011;5615;49.304;10.576;2024-02-14T00:33:09;17.37;;;12.80;;
11121;SDS011;5615;49.304;10.576;2024-02-14T00:35:36;23.33;;;13.13;;
11121;SDS011;5615;49.304;10.576;2024-02-14T00:38:04;19.30;;;13.50;;
11121;SDS011;5615;49.304;10.576;2024-02-14T00:40:30;22.73;;;13.47;;
11121;SDS011;5615;49.304;10.576;2024-02-14T00:42:57;15.70;;;12.53;;
11121;SDS011;5615;49.304;10.576;2024-02-14T00:45:24;16.17;;;11.87;;
11121;SDS011;5615;49.304;10.576;2024-02-14T00:47:50;17.50;;;12.13;;
11121;SDS011;5615;49.304;10.576;2024-02-14T00:50:17;18.40;;;13.73;;
11121;SDS011;5615;49.304;10.576;2024-02-14T00:52:43;24.27;;;13.73;;
11121;SDS011;5615;49.304;10.576;2024-02-14T00:55:11;19.40;;;12.77;;
11121;SDS011;5615;49.304;10.576;2024-02-14T00:57:38;18.30;;;13.10;;
11121;SDS011;5615;49.304;10.576;2024-02-14T01:00:05;20.53;;;14.17;;
11121;SDS011;5615;49.304;10.576;2024-02-14T01:02:34;20.90;;;14.03;;
11121;SDS011;5615;49.304;10.576;2024-02-14T01:05:00;19.83;;;13.37;;
11121;SDS011;5615;49.304;10.576;2024-02-14T01:07:29;18.80;;;13.27;;
11121;SDS011;5615;49.304;10.576;2024-02-14T01:09:55;16.57;;;13.00;;
11121;SDS011;5615;49.304;10.576;2024-02-14T01:12:23;17.43;;;12.27;;
11121;SDS011;5615;49.304;10.576;2024-02-14T01:14:50;20.17;;;13.67;;
11121;SDS011;5615;49.304;10.576;2024-02-14T01:17:17;17.07;;;13.30;;
11121;SDS011;5615;49.304;10.576;2024-02-14T01:19:44;16.57;;;12.87;;
11121;SDS011;5615;49.304;10.576;2024-02-14T01:22:10;20.47;;;14.27;;
11121;SDS011;5615;49.304;10.576;2024-02-14T01:24:41;15.70;;;12.57;;
11121;SDS011;5615;49.304;10.576;2024-02-14T01:27:08;19.93;;;13.83;;
11121;SDS011;5615;49.304;10.576;2024-02-14T01:29:36;18.13;;;12.93;;
11121;SDS011;5615;49.304;10.576;2024-02-14T01:32:02;18.43;;;12.97;;
11121;SDS011;5615;49.304;10.576;2024-02-14T01:34:31;17.40;;;13.67;;
11121;SDS011;5615;49.304;10.576;2024-02-14T01:36:58;18.93;;;13.97;;
11121;SDS011;5615;49.304;10.576;2024-02-14T01:39:25;18.80;;;13.90;;
11121;SDS011;5615;49.304;10.576;2024-02-14T01:41:51;18.70;;;13.87;;
11121;SDS011;5615;49.304;10.576;2024-02-14T01:44:18;18.70;;;13.67;;
11121;SDS011;5615;49.304;10.576;2024-02-14T01:46:47;22.33;;;15.00;;
11121;SDS011;5615;49.304;10.576;2024-02-14T01:49:13;18.93;;;14.17;;
11121;SDS011;5615;49.304;10.576;2024-02-14T01:51:42;20.47;;;14.07;;
11121;SDS011;5615;49.304;10.576;2024-02-14T01:54:10;20.07;;;15.47;;
11121;SDS011;5615;49.304;10.576;2024-02-14T01:56:38;19.33;;;14.63;;
11121;SDS011;5615;49.304;10.576;2024-02-14T01:59:05;19.70;;;14.63;;
11121;SDS011;5615;49.304;10.576;2024-02-14T02:01:33;20.63;;;14.40;;
11121;SDS011;5615;49.304;10.576;2024-02-14T02:04:02;19.83;;;14.20;;
11121;SDS011;5615;49.304;10.576;2024-02-14T02:06:30;21.07;;;14.90;;
11121;SDS011;5615;49.304;10.576;2024-02-14T02:08:57;22.30;;;14.93;;
11121;SDS011;5615;49.304;10.576;2024-02-14T02:11:25;19.53;;;14.40;;
11121;SDS011;5615;49.304;10.576;2024-02-14T02:13:52;21.33;;;14.67;;
11121;SDS011;5615;49.304;10.576;2024-02-14T02:16:19;22.87;;;15.13;;
11121;SDS011;5615;49.304;10.576;2024-02-14T02:18:46;18.83;;;13.73;;
11121;SDS011;5615;49.304;10.576;2024-02-14T02:21:14;20.40;;;13.67;;
11121;SDS011;5615;49.304;10.576;2024-02-14T02:23:45;18.80;;;14.20;;
11121;SDS011;5615;49.304;10.576;2024-02-14T02:26:12;23.57;;;16.27;;
11121;SDS011;5615;49.304;10.576;2024-02-14T02:28:39;18.17;;;13.90;;
11121;SDS011;5615;49.304;10.576;2024-02-14T02:31:07;21.07;;;14.93;;
11121;SDS011;5615;49.304;10.576;2024-02-14T02:33:34;22.40;;;15.50;;
11121;SDS011;5615;49.304;10.576;2024-02-14T02:36:01;19.33;;;14.63;;
11121;SDS011;5615;49.304;10.576;2024-02-14T02:38:27;18.87;;;13.97;;
11121;SDS011;5615;49.304;10.576;2024-02-14T02:40:55;22.80;;;15.33;;
11121;SDS011;5615;49.304;10.576;2024-02-14T02:43:22;22.10;;;15.70;;
11121;SDS011;5615;49.304;10.576;2024-02-14T02:45:48;22.03;;;14.83;;
11121;SDS011;5615;49.304;10.576;2024-02-14T02:48:15;20.40;;;14.40;;
11121;SDS011;5615;49.304;10.576;2024-02-14T02:50:42;22.17;;;15.63;;
11121;SDS011;5615;49.304;10.576;2024-02-14T02:53:09;24.00;;;15.73;;
11121;SDS011;5615;49.304;10.576;2024-02-14T02:55:36;24.87;;;15.67;;
11121;SDS011;5615;49.304;10.576;2024-02-14T02:58:04;23.67;;;15.63;;
11121;SDS011;5615;49.304;10.576;2024-02-14T03:00:31;28.00;;;16.17;;
11121;SDS011;5615;49.304;10.576;2024-02-14T03:02:58;21.57;;;15.23;;
11121;SDS011;5615;49.304;10.576;2024-02-14T03:05:27;22.87;;;15.00;;
11121;SDS011;5615;49.304;10.576;2024-02-14T03:07:56;23.07;;;14.97;;
11121;SDS011;5615;49.304;10.576;2024-02-14T03:10:23;19.20;;;14.63;;
11121;SDS011;5615;49.304;10.576;2024-02-14T03:12:50;21.97;;;15.00;;
11121;SDS011;5615;49.304;10.576;2024-02-14T03:15:19;20.77;;;13.37;;
11121;SDS011;5615;49.304;10.576;2024-02-14T03:17:46;22.53;;;14.73;;
11121;SDS011;5615;49.304;10.576;2024-02-14T03:20:14;20.43;;;14.93;;
11121;SDS011;5615;49.304;10.576;2024-02-14T03:22:41;19.70;;;14.47;;
11121;SDS011;5615;49.304;10.576;2024-02-14T03:25:11;21.40;;;14.90;;
11121;SDS011;5615;49.304;10.576;2024-02-14T03:27:40;23.47;;;16.10;;
11121;SDS011;5615;49.304;10.576;2024-02-14T03:30:07;22.13;;;14.60;;
11121;SDS011;5615;49.304;10.576;2024-02-14T03:32:35;21.90;;;15.80;;
11121;SDS011;5615;49.304;10.576;2024-02-14T03:35:02;24.90;;;15.60;;
11121;SDS011;5615;49.304;10.576;2024-02-14T03:37:29;19.03;;;14.53;;
11121;SDS011;5615;49.304;10.576;2024-02-14T03:39:56;23.67;;;15.67;;
11121;SDS011;5615;49.304;10.576;2024-02-14T03:42:22;17.93;;;14.57;;
11121;SDS011;5615;49.304;10.576;2024-02-14T03:44:51;22.67;;;14.40;;
11121;SDS011;5615;49.304;10.576;2024-02-14T03:47:18;20.03;;;14.27;;
11121;SDS011;5615;49.304;10.576;2024-02-14T03:49:46;19.40;;;14.20;;
11121;SDS011;5615;49.304;10.576;2024-02-14T03:52:12;23.93;;;15.93;;
11121;SDS011;5615;49.304;10.576;2024-02-14T03:54:39;20.63;;;14.83;;
11121;SDS011;5615;49.304;10.576;2024-02-14T03:57:06;21.70;;;15.17;;
11121;SDS011;5615;49.304;10.576;2024-02-14T03:59:35;19.03;;;14.10;;
11121;SDS011;5615;49.304;10.576;2024-02-14T04:02:03;18.37;;;14.43;;
11121;SDS011;5615;49.304;10.576;2024-02-14T04:04:31;25.87;;;15.13;;
11121;SDS011;5615;49.304;10.576;2024-02-14T04:07:00;25.63;;;16.67;;
11121;SDS011;5615;49.304;10.576;2024-02-14T04:09:27;25.67;;;15.37;;
11121;SDS011;5615;49.304;10.576;2024-02-14T04:11:54;22.57;;;16.33;;
11121;SDS011;5615;49.304;10.576;2024-02-14T04:14:20;25.27;;;16.03;;
11121;SDS011;5615;49.304;10.576;2024-02-14T04:16:47;25.70;;;15.13;;
11121;SDS011;5615;49.304;10.576;2024-02-14T04:19:14;23.40;;;15.37;;
11121;SDS011;5615;49.304;10.576;2024-02-14T04:21:42;27.97;;;16.87;;
11121;SDS011;5615;49.304;10.576;2024-02-14T04:24:10;20.07;;;15.50;;
11121;SDS011;5615;49.304;10.576;2024-02-14T04:26:37;22.00;;;15.90;;
11121;SDS011;5615;49.304;10.576;2024-02-14T04:29:04;21.60;;;15.40;;
11121;SDS011;5615;49.304;10.576;2024-02-14T04:31:31;22.37;;;15.33;;
11121;SDS011;5615;49.304;10.576;2024-02-14T04:33:57;22.33;;;15.43;;
11121;SDS011;5615;49.304;10.576;2024-02-14T04:36:25;22.37;;;15.33;;
11121;SDS011;5615;49.304;10.576;2024-02-14T04:38:52;21.90;;;14.83;;
11121;SDS011;5615;49.304;10.576;2024-02-14T04:41:22;22.87;;;15.80;;
11121;SDS011;5615;49.304;10.576;2024-02-14T04:43:48;21.53;;;15.10;;
11121;SDS011;5615;49.304;10.576;2024-02-14T04:46:15;21.23;;;15.03;;
11121;SDS011;5615;49.304;10.576;2024-02-14T04:48:41;24.53;;;14.53;;
11121;SDS011;5615;49.304;10.576;2024-02-14T04:51:08;20.93;;;15.47;;
11121;SDS011;5615;49.304;10.576;2024-02-14T04:53:35;23.93;;;14.40;;
11121;SDS011;5615;49.304;10.576;2024-02-14T04:56:01;18.27;;;14.03;;
11121;SDS011;5615;49.304;10.576;2024-02-14T04:58:29;18.77;;;14.63;;
11121;SDS011;5615;49.304;10.576;2024-02-14T05:00:56;20.07;;;14.40;;
11121;SDS011;5615;49.304;10.576;2024-02-14T05:03:23;19.47;;;13.97;;
11121;SDS011;5615;49.304;10.576;2024-02-14T05:05:51;22.57;;;14.87;;
11121;SDS011;5615;49.304;10.576;2024-02-14T05:08:17;20.30;;;14.27;;
11121;SDS011;5615;49.304;10.576;2024-02-14T05:10:44;21.87;;;14.17;;
11121;SDS011;5615;49.304;10.576;2024-02-14T05:13:11;19.63;;;14.13;;
11121;SDS011;5615;49.304;10.576;2024-02-14T05:15:39;22.00;;;15.17;;
11121;SDS011;5615;49.304;10.576;2024-02-14T05:18:06;17.03;;;13.40;;
11121;SDS011;5615;49.304;10.576;2024-02-14T05:20:34;17.90;;;14.40;;
11121;SDS011;5615;49.304;10.576;2024-02-14T05:23:00;20.93;;;14.07;;
11121;SDS011;5615;49.304;10.576;2024-02-14T05:25:28;15.67;;;12.30;;
11121;SDS011;5615;49.304;10.576;2024-02-14T05:27:57;17.57;;;10.87;;
11121;SDS011;5615;49.304;10.576;2024-02-14T05:30:24;17.50;;;11.83;;
11121;SDS011;5615;49.304;10.576;2024-02-14T05:32:53;14.77;;;11.37;;
11121;SDS011;5615;49.304;10.576;2024-02-14T05:35:21;12.67;;;11.03;;
11121;SDS011;5615;49.304;10.576;2024-02-14T05:37:48;19.10;;;11.63;;
11121;SDS011;5615;49.304;10.576;2024-02-14T05:40:16;16.80;;;11.40;;
11121;SDS011;5615;49.304;10.576;2024-02-14T05:42:42;16.10;;;11.00;;
11121;SDS011;5615;49.304;10.576;2024-02-14T05:45:09;15.00;;;10.93;;
11121;SDS011;5615;49.304;10.576;2024-02-14T05:47:36;15.67;;;10.47;;
11121;SDS011;5615;49.304;10.576;2024-02-14T05:50:05;14.37;;;10.53;;
11121;SDS011;5615;49.304;10.576;2024-02-14T05:52:33;12.70;;;10.33;;
11121;SDS011;5615;49.304;10.576;2024-02-14T05:55:00;14.47;;;10.33;;
11121;SDS011;5615;49.304;10.576;2024-02-14T05:57:28;21.73;;;16.27;;
11121;SDS011;5615;49.304;10.576;2024-02-14T05:59:55;52.63;;;45.20;;
11121;SDS011;5615;49.304;10.576;2024-02-14T06:02:21;24.83;;;20.00;;
11121;SDS011;5615;49.304;10.576;2024-02-14T06:04:48;13.07;;;10.00;;
11121;SDS011;5615;49.304;10.576;2024-02-14T06:07:16;15.37;;;9.30;;
11121;SDS011;5615;49.304;10.576;2024-02-14T06:09:43;13.30;;;9.60;;
11121;SDS011;5615;49.304;10.576;2024-02-14T06:12:10;12.33;;;8.67;;
11121;SDS011;5615;49.304;10.576;2024-02-14T06:14:37;10.37;;;8.20;;
11121;SDS011;5615;49.304;10.576;2024-02-14T06:17:04;9.23;;;8.30;;
11121;SDS011;5615;49.304;10.576;2024-02-14T06:19:31;10.97;;;8.60;;
11121;SDS011;5615;49.304;10.576;2024-02-14T06:21:58;10.30;;;7.83;;
11121;SDS011;5615;49.304;10.576;2024-02-14T06:24:26;11.33;;;8.50;;
11121;SDS011;5615;49.304;10.576;2024-02-14T06:26:53;11.13;;;8.80;;
11121;SDS011;5615;49.304;10.576;2024-02-14T06:29:19;11.80;;;9.13;;
11121;SDS011;5615;49.304;10.576;2024-02-14T06:31:46;13.30;;;9.70;;
11121;SDS011;5615;49.304;10.576;2024-02-14T06:34:13;16.90;;;9.90;;
11121;SDS011;5615;49.304;10.576;2024-02-14T06:36:39;12.67;;;7.57;;
11121;SDS011;5615;49.304;10.576;2024-02-14T06:39:06;11.23;;;7.80;;
11121;SDS011;5615;49.304;10.576;2024-02-14T06:41:34;16.87;;;9.30;;
11121;SDS011;5615;49.304;10.576;2024-02-14T06:44:01;15.57;;;8.53;;
11121;SDS011;5615;49.304;10.576;2024-02-14T06:46:27;17.47;;;8.67;;
11121;SDS011;5615;49.304;10.576;2024-02-14T06:48:54;13.17;;;8.10;;
11121;SDS011;5615;49.304;10.576;2024-02-14T06:51:21;12.60;;;7.70;;
11121;SDS011;5615;49.304;10.576;2024-02-14T06:53:48;10.30;;;7.50;;
11121;SDS011;5615;49.304;10.576;2024-02-14T06:56:15;10.70;;;7.70;;
11121;SDS011;5615;49.304;10.576;2024-02-14T06:58:43;12.03;;;7.53;;
11121;SDS011;5615;49.304;10.576;2024-02-14T07:01:11;9.77;;;7.33;;
11121;SDS011;5615;49.304;10.576;2024-02-14T07:03:40;9.43;;;7.10;;
11121;SDS011;5615;49.304;10.576;2024-02-14T07:06:06;8.77;;;6.50;;
11121;SDS011;5615;49.304;10.576;2024-02-14T07:08:33;10.87;;;6.67;;
11121;SDS011;5615;49.304;10.576;2024-02-14T07:11:00;10.10;;;6.00;;
11121;SDS011;5615;49.304;10.576;2024-02-14T07:13:26;7.87;;;4.53;;
11121;SDS011;5615;49.304;10.576;2024-02-14T07:15:54;8.00;;;5.53;;
11121;SDS011;5615;49.304;10.576;2024-02-14T07:18:21;10.20;;;5.80;;
11121;SDS011;5615;49.304;10.576;2024-02-14T07:20:48;7.87;;;6.20;;
11121;SDS011;5615;49.304;10.576;2024-02-14T07:23:15;6.53;;;5.50;;
11121;SDS011;5615;49.304;10.576;2024-02-14T07:25:42;7.90;;;5.00;;
11121;SDS011;5615;49.304;10.576;2024-02-14T07:28:09;8.47;;;5.70;;
11121;SDS011;5615;49.304;10.576;2024-02-14T07:30:36;9.67;;;5.17;;
11121;SDS011;5615;49.304;10.576;2024-02-14T07:33:04;6.87;;;5.17;;
11121;SDS011;5615;49.304;10.576;2024-02-14T07:35:31;7.07;;;4.50;;
11121;SDS011;5615;49.304;10.576;2024-02-14T07:37:58;8.00;;;5.30;;
11121;SDS011;5615;49.304;10.576;2024-02-14T07:40:24;7.03;;;5.17;;
11121;SDS011;5615;49.304;10.576;2024-02-14T07:42:52;9.43;;;5.93;;
11121;SDS011;5615;49.304;10.576;2024-02-14T07:45:18;8.20;;;5.10;;
11121;SDS011;5615;49.304;10.576;2024-02-14T07:47:45;10.77;;;5.87;;
11121;SDS011;5615;49.304;10.576;2024-02-14T07:50:15;7.23;;;4.47;;
11121;SDS011;5615;49.304;10.576;2024-02-14T07:52:42;7.00;;;5.50;;
11121;SDS011;5615;49.304;10.576;2024-02-14T07:55:09;8.93;;;4.47;;
11121;SDS011;5615;49.304;10.576;2024-02-14T07:57:37;7.27;;;4.70;;
11121;SDS011;5615;49.304;10.576;2024-02-14T08:00:04;10.17;;;4.93;;
11121;SDS011;5615;49.304;10.576;2024-02-14T08:02:33;6.27;;;4.43;;
11121;SDS011;5615;49.304;10.576;2024-02-14T08:05:00;4.87;;;4.30;;
11121;SDS011;5615;49.304;10.576;2024-02-14T08:07:28;10.27;;;5.10;;
11121;SDS011;5615;49.304;10.576;2024-02-14T08:09:56;6.57;;;4.70;;
11121;SDS011;5615;49.304;10.576;2024-02-14T08:12:23;8.97;;;5.77;;
11121;SDS011;5615;49.304;10.576;2024-02-14T08:14:50;5.90;;;5.17;;
11121;SDS011;5615;49.304;10.576;2024-02-14T08:17:17;6.07;;;4.60;;
11121;SDS011;5615;49.304;10.576;2024-02-14T08:19:44;8.50;;;4.47;;
11121;SDS011;5615;49.304;10.576;2024-02-14T08:22:11;9.47;;;4.40;;
11121;SDS011;5615;49.304;10.576;2024-02-14T08:24:38;5.73;;;3.97;;
11121;SDS011;5615;49.304;10.576;2024-02-14T08:27:05;5.30;;;4.10;;
11121;SDS011;5615;49.304;10.576;2024-02-14T08:29:32;9.27;;;4.50;;
11121;SDS011;5615;49.304;10.576;2024-02-14T08:31:59;8.40;;;4.93;;
11121;SDS011;5615;49.304;10.576;2024-02-14T08:34:25;8.40;;;4.43;;
11121;SDS011;5615;49.304;10.576;2024-02-14T08:36:52;6.73;;;4.40;;
11121;SDS011;5615;49.304;10.576;2024-02-14T08:39:19;7.17;;;4.20;;
11121;SDS011;5615;49.304;10.576;2024-02-14T08:41:47;9.60;;;5.20;;
11121;SDS011;5615;49.304;10.576;2024-02-14T08:44:14;12.50;;;5.10;;
11121;SDS011;5615;49.304;10.576;2024-02-14T08:46:43;10.03;;;4.20;;
11121;SDS011;5615;49.304;10.576;2024-02-14T08:49:13;6.37;;;3.93;;
11121;SDS011;5615;49.304;10.576;2024-02-14T08:51:40;10.23;;;4.90;;
11121;SDS011;5615;49.304;10.576;2024-02-14T08:54:08;8.00;;;4.30;;
11121;SDS011;5615;49.304;10.576;2024-02-14T08:56:35;5.80;;;4.20;;
11121;SDS011;5615;49.304;10.576;2024-02-14T08:59:04;6.57;;;3.90;;
11121;SDS011;5615;49.304;10.576;2024-02-14T09:01:31;8.37;;;4.20;;
11121;SDS011;5615;49.304;10.576;2024-02-14T09:03:59;8.40;;;3.70;;
11121;SDS011;5615;49.304;10.576;2024-02-14T09:06:25;10.60;;;6.27;;
11121;SDS011;5615;49.304;10.576;2024-02-14T09:08:52;5.90;;;3.90;;
11121;SDS011;5615;49.304;10.576;2024-02-14T09:11:19;7.03;;;4.40;;
11121;SDS011;5615;49.304;10.576;2024-02-14T09:13:47;8.23;;;4.70;;
11121;SDS011;5615;49.304;10.576;2024-02-14T09:16:20;8.93;;;5.47;;
11121;SDS011;5615;49.304;10.576;2024-02-14T09:18:47;4.80;;;3.10;;
11121;SDS011;5615;49.304;10.576;2024-02-14T09:21:14;5.47;;;3.30;;
11121;SDS011;5615;49.304;10.576;2024-02-14T09:23:41;6.10;;;3.70;;
11121;SDS011;5615;49.304;10.576;2024-02-14T09:26:10;7.13;;;3.80;;
11121;SDS011;5615;49.304;10.576;2024-02-14T09:28:36;4.33;;;3.40;;
11121;SDS011;5615;49.304;10.576;2024-02-14T09:31:06;6.20;;;3.37;;
11121;SDS011;5615;49.304;10.576;2024-02-14T09:33:36;5.47;;;3.40;;
11121;SDS011;5615;49.304;10.576;2024-02-14T09:36:03;7.13;;;3.77;;
11121;SDS011;5615;49.304;10.576;2024-02-14T09:38:30;8.50;;;4.73;;
11121;SDS011;5615;49.304;10.576;2024-02-14T09:40:57;7.63;;;3.80;;
11121;SDS011;5615;49.304;10.576;2024-02-14T09:43:31;9.63;;;5.73;;
11121;SDS011;5615;49.304;10.576;2024-02-14T09:46:01;6.23;;;3.00;;
11121;SDS011;5615;49.304;10.576;2024-02-14T09:48:28;5.13;;;2.97;;
11121;SDS011;5615;49.304;10.576;2024-02-14T09:50:57;5.93;;;3.10;;
11121;SDS011;5615;49.304;10.576;2024-02-14T09:53:24;6.07;;;2.97;;
11121;SDS011;5615;49.304;10.576;2024-02-14T09:55:54;6.30;;;2.97;;
11121;SDS011;5615;49.304;10.576;2024-02-14T09:58:21;5.63;;;2.80;;
11121;SDS011;5615;49.304;10.576;2024-02-14T10:00:49;4.83;;;2.40;;
11121;SDS011;5615;49.304;10.576;2024-02-14T10:03:16;5.53;;;3.30;;
11121;SDS011;5615;49.304;10.576;2024-02-14T10:05:43;10.73;;;4.30;;
11121;SDS011;5615;49.304;10.576;2024-02-14T10:08:11;7.53;;;2.80;;
11121;SDS011;5615;49.304;10.576;2024-02-14T10:10:38;5.80;;;2.40;;
11121;SDS011;5615;49.304;10.576;2024-02-14T10:13:04;3.90;;;2.63;;
11121;SDS011;5615;49.304;10.576;2024-02-14T10:15:31;4.33;;;3.07;;
11121;SDS011;5615;49.304;10.576;2024-02-14T10:17:58;5.83;;;3.80;;
11121;SDS011;5615;49.304;10.576;2024-02-14T10:20:25;6.70;;;4.00;;
11121;SDS011;5615;49.304;10.576;2024-02-14T10:22:53;10.87;;;5.57;;
11121;SDS011;5615;49.304;10.576;2024-02-14T10:25:28;7.20;;;3.33;;
11121;SDS011;5615;49.304;10.576;2024-02-14T10:27:56;5.67;;;3.30;;
11121;SDS011;5615;49.304;10.576;2024-02-14T10:30:23;5.77;;;3.13;;
11121;SDS011;5615;49.304;10.576;2024-02-14T10:32:50;5.33;;;2.83;;
11121;SDS011;5615;49.304;10.576;2024-02-14T10:35:16;5.13;;;2.60;;
11121;SDS011;5615;49.304;10.576;2024-02-14T10:37:45;4.73;;;2.60;;
11121;SDS011;5615;49.304;10.576;2024-02-14T10:40:14;5.17;;;2.73;;
11121;SDS011;5615;49.304;10.576;2024-02-14T10:42:42;3.40;;;2.10;;
11121;SDS011;5615;49.304;10.576;2024-02-14T10:45:09;4.20;;;2.07;;
11121;SDS011;5615;49.304;10.576;2024-02-14T10:47:36;4.30;;;2.23;;
11121;SDS011;5615;49.304;10.576;2024-02-14T10:50:09;4.93;;;2.60;;
11121;SDS011;5615;49.304;10.576;2024-02-14T10:52:37;3.20;;;2.23;;
11121;SDS011;5615;49.304;10.576;2024-02-14T10:55:06;3.23;;;2.00;;
11121;SDS011;5615;49.304;10.576;2024-02-14T10:57:36;4.13;;;2.43;;
11121;SDS011;5615;49.304;10.576;2024-02-14T11:00:05;3.27;;;2.00;;
11121;SDS011;5615;49.304;10.576;2024-02-14T11:02:35;5.23;;;2.20;;
11121;SDS011;5615;49.304;10.576;2024-02-14T11:05:02;4.60;;;2.10;;
11121;SDS011;5615;49.304;10.576;2024-02-14T11:07:29;5.40;;;2.43;;
11121;SDS011;5615;49.304;10.576;2024-02-14T11:10:00;2.40;;;1.80;;
11121;SDS011;5615;49.304;10.576;2024-02-14T11:12:32;2.10;;;1.67;;
11121;SDS011;5615;49.304;10.576;2024-02-14T11:15:01;4.17;;;1.93;;
11121;SDS011;5615;49.304;10.576;2024-02-14T11:17:36;4.30;;;1.83;;
11121;SDS011;5615;49.304;10.576;2024-02-14T11:20:11;3.57;;;1.70;;
11121;SDS011;5615;49.304;10.576;2024-02-14T11:22:49;2.88;;;2.00;;
11121;SDS011;5615;49.304;10.576;2024-02-14T11:25:18;2.80;;;1.70;;
11121;SDS011;5615;49.304;10.576;2024-02-14T11:27:49;3.75;;;1.85;;
11121;SDS011;5615;49.304;10.576;2024-02-14T11:30:26;2.50;;;1.60;;
11121;SDS011;5615;49.304;10.576;2024-02-14T11:32:55;2.50;;;1.83;;
11121;SDS011;5615;49.304;10.576;2024-02-14T11:35:51;4.05;;;1.80;;
11121;SDS011;5615;49.304;10.576;2024-02-14T11:38:19;4.53;;;1.85;;
11121;SDS011;5615;49.304;10.576;2024-02-14T11:40:45;3.17;;;2.00;;
11121;SDS011;5615;49.304;10.576;2024-02-14T11:43:13;4.25;;;1.83;;
11121;SDS011;5615;49.304;10.576;2024-02-14T11:45:41;4.47;;;2.00;;
11121;SDS011;5615;49.304;10.576;2024-02-14T11:48:12;3.70;;;1.70;;
11121;SDS011;5615;49.304;10.576;2024-02-14T11:50:39;2.80;;;1.80;;
11121;SDS011;5615;49.304;10.576;2024-02-14T11:53:10;4.60;;;1.80;;
11121;SDS011;5615;49.304;10.576;2024-02-14T11:55:37;4.27;;;1.97;;
11121;SDS011;5615;49.304;10.576;2024-02-14T11:58:07;3.43;;;1.90;;
11121;SDS011;5615;49.304;10.576;2024-02-14T12:00:34;3.50;;;2.13;;
11121;SDS011;5615;49.304;10.576;2024-02-14T12:03:03;3.63;;;2.10;;
11121;SDS011;5615;49.304;10.576;2024-02-14T12:05:34;2.37;;;1.80;;
11121;SDS011;5615;49.304;10.576;2024-02-14T12:08:03;2.40;;;1.80;;
11121;SDS011;5615;49.304;10.576;2024-02-14T12:10:31;2.87;;;1.87;;
11121;SDS011;5615;49.304;10.576;2024-02-14T12:12:58;1.97;;;1.77;;
11121;SDS011;5615;49.304;10.576;2024-02-14T12:15:36;5.87;;;1.60;;
11121;SDS011;5615;49.304;10.576;2024-02-14T12:18:03;2.83;;;1.70;;
11121;SDS011;5615;49.304;10.576;2024-02-14T12:20:30;2.63;;;1.60;;
11121;SDS011;5615;49.304;10.576;2024-02-14T12:22:59;3.10;;;1.73;;
11121;SDS011;5615;49.304;10.576;2024-02-14T12:25:26;2.77;;;1.70;;
11121;SDS011;5615;49.304;10.576;2024-02-14T12:27:52;2.87;;;1.87;;
11121;SDS011;5615;49.304;10.576;2024-02-14T12:30:19;3.43;;;1.73;;
11121;SDS011;5615;49.304;10.576;2024-02-14T12:32:46;4.37;;;1.80;;
11121;SDS011;5615;49.304;10.576;2024-02-14T12:35:12;2.63;;;1.80;;
11121;SDS011;5615;49.304;10.576;2024-02-14T12:37:39;3.00;;;1.87;;
11121;SDS011;5615;49.304;10.576;2024-02-14T12:40:08;4.43;;;1.70;;
11121;SDS011;5615;49.304;10.576;2024-02-14T12:42:35;5.20;;;1.93;;
11121;SDS011;5615;49.304;10.576;2024-02-14T12:45:02;2.33;;;1.73;;
11121;SDS011;5615;49.304;10.576;2024-02-14T12:47:28;3.20;;;2.00;;
11121;SDS011;5615;49.304;10.576;2024-02-14T12:49:58;3.27;;;2.00;;
11121;SDS011;5615;49.304;10.576;2024-02-14T12:52:25;4.93;;;2.03;;
11121;SDS011;5615;49.304;10.576;2024-02-14T12:54:52;2.80;;;1.80;;
11121;SDS011;5615;49.304;10.576;2024-02-14T12:57:20;4.50;;;2.33;;
11121;SDS011;5615;49.304;10.576;2024-02-14T12:59:47;3.07;;;1.77;;
11121;SDS011;5615;49.304;10.576;2024-02-14T13:02:14;5.00;;;2.00;;
11121;SDS011;5615;49.304;10.576;2024-02-14T13:04:42;5.10;;;2.27;;
11121;SDS011;5615;49.304;10.576;2024-02-14T13:07:08;5.17;;;2.27;;
11121;SDS011;5615;49.304;10.576;2024-02-14T13:09:35;3.63;;;2.10;;
11121;SDS011;5615;49.304;10.576;2024-02-14T13:12:02;5.03;;;2.50;;
11121;SDS011;5615;49.304;10.576;2024-02-14T13:14:32;5.30;;;2.27;;
11121;SDS011;5615;49.304;10.576;2024-02-14T13:16:58;4.80;;;2.10;;
11121;SDS011;5615;49.304;10.576;2024-02-14T13:19:25;3.90;;;2.30;;
11121;SDS011;5615;49.304;10.576;2024-02-14T13:21:52;3.23;;;1.87;;
11121;SDS011;5615;49.304;10.576;2024-02-14T13:24:19;5.23;;;2.37;;
11121;SDS011;5615;49.304;10.576;2024-02-14T13:26:46;5.07;;;2.40;;
11121;SDS011;5615;49.304;10.576;2024-02-14T13:29:13;3.20;;;2.17;;
11121;SDS011;5615;49.304;10.576;2024-02-14T13:31:43;4.90;;;2.50;;
11121;SDS011;5615;49.304;10.576;2024-02-14T13:34:10;4.67;;;2.20;;
11121;SDS011;5615;49.304;10.576;2024-02-14T13:36:36;3.87;;;2.20;;
11121;SDS011;5615;49.304;10.576;2024-02-14T13:39:04;4.13;;;2.13;;
11121;SDS011;5615;49.304;10.576;2024-02-14T13:41:30;5.63;;;2.20;;
11121;SDS011;5615;49.304;10.576;2024-02-14T13:43:57;4.37;;;2.30;;
11121;SDS011;5615;49.304;10.576;2024-02-14T13:46:24;3.30;;;2.10;;
11121;SDS011;5615;49.304;10.576;2024-02-14T13:48:52;4.10;;;2.00;;
11121;SDS011;5615;49.304;10.576;2024-02-14T13:51:19;4.37;;;2.07;;
11121;SDS011;5615;49.304;10.576;2024-02-14T13:53:46;4.93;;;2.30;;
11121;SDS011;5615;49.304;10.576;2024-02-14T13:56:14;6.57;;;2.40;;
11121;SDS011;5615;49.304;10.576;2024-02-14T13:58:42;2.47;;;2.27;;
11121;SDS011;5615;49.304;10.576;2024-02-14T14:01:09;3.77;;;2.07;;
11121;SDS011;5615;49.304;10.576;2024-02-14T14:03:36;4.00;;;2.70;;
11121;SDS011;5615;49.304;10.576;2024-02-14T14:06:04;5.33;;;2.57;;
11121;SDS011;5615;49.304;10.576;2024-02-14T14:08:33;4.57;;;2.53;;
11121;SDS011;5615;49.304;10.576;2024-02-14T14:11:01;4.77;;;2.60;;
11121;SDS011;5615;49.304;10.576;2024-02-14T14:13:28;4.20;;;2.70;;
11121;SDS011;5615;49.304;10.576;2024-02-14T14:15:56;5.23;;;3.03;;
11121;SDS011;5615;49.304;10.576;2024-02-14T14:18:22;2.47;;;1.60;;
11121;SDS011;5615;49.304;10.576;2024-02-14T14:20:49;2.60;;;1.90;;
11121;SDS011;5615;49.304;10.576;2024-02-14T14:23:17;4.13;;;2.00;;
11121;SDS011;5615;49.304;10.576;2024-02-14T14:25:44;3.03;;;2.00;;
11121;SDS011;5615;49.304;10.576;2024-02-14T14:28:11;5.70;;;2.20;;
11121;SDS011;5615;49.304;10.576;2024-02-14T14:30:39;3.30;;;2.10;;
11121;SDS011;5615;49.304;10.576;2024-02-14T14:33:06;2.90;;;2.10;;
11121;SDS011;5615;49.304;10.576;2024-02-14T14:35:33;4.27;;;2.23;;
11121;SDS011;5615;49.304;10.576;2024-02-14T14:38:00;5.00;;;2.00;;